sensor_id;sensor_type;location;lat;lon;timestamp;temperature;humidity
74657;DHT22;63185;45.642;13.764;2024-01-27T00:01:50;9.40;80.00
74657;DHT22;63185;45.642;13.764;2024-01-27T00:04:16;9.50;80.00
74657;DHT22;63185;45.642;13.764;2024-01-27T00:06:42;9.40;79.90
74657;DHT22;63185;45.642;13.764;2024-01-27T00:09:07;9.50;79.90
74657;DHT22;63185;45.642;13.764;2024-01-27T00:11:33;9.40;79.90
74657;DHT22;63185;45.642;13.764;2024-01-27T00:13:59;9.40;79.90
74657;DHT22;63185;45.642;13.764;2024-01-27T00:16:25;9.30;80.00
74657;DHT22;63185;45.642;13.764;2024-01-27T00:18:51;9.30;80.10
74657;DHT22;63185;45.642;13.764;2024-01-27T00:21:16;9.30;80.00
74657;DHT22;63185;45.642;13.764;2024-01-27T00:23:42;9.30;80.10
74657;DHT22;63185;45.642;13.764;2024-01-27T00:26:08;9.20;80.10
74657;DHT22;63185;45.642;13.764;2024-01-27T00:28:33;9.20;80.30
74657;DHT22;63185;45.642;13.764;2024-01-27T00:30:59;9.20;80.30
74657;DHT22;63185;45.642;13.764;2024-01-27T00:33:25;9.20;80.40
74657;DHT22;63185;45.642;13.764;2024-01-27T00:35:51;9.20;80.50
74657;DHT22;63185;45.642;13.764;2024-01-27T00:38:17;9.30;80.70
74657;DHT22;63185;45.642;13.764;2024-01-27T00:40:42;9.30;81.00
74657;DHT22;63185;45.642;13.764;2024-01-27T00:43:08;9.30;81.00
74657;DHT22;63185;45.642;13.764;2024-01-27T00:45:34;9.30;81.20
74657;DHT22;63185;45.642;13.764;2024-01-27T00:47:59;9.30;80.90
74657;DHT22;63185;45.642;13.764;2024-01-27T00:50:26;9.40;80.70
74657;DHT22;63185;45.642;13.764;2024-01-27T00:52:51;9.30;79.80
74657;DHT22;63185;45.642;13.764;2024-01-27T00:55:17;9.20;79.60
74657;DHT22;63185;45.642;13.764;2024-01-27T00:57:43;9.10;79.70
74657;DHT22;63185;45.642;13.764;2024-01-27T01:00:09;9.10;79.80
74657;DHT22;63185;45.642;13.764;2024-01-27T01:02:36;9.10;79.90
74657;DHT22;63185;45.642;13.764;2024-01-27T01:05:02;9.00;80.00
74657;DHT22;63185;45.642;13.764;2024-01-27T01:07:30;8.90;80.20
74657;DHT22;63185;45.642;13.764;2024-01-27T01:09:55;8.90;80.40
74657;DHT22;63185;45.642;13.764;2024-01-27T01:12:21;8.90;80.90
74657;DHT22;63185;45.642;13.764;2024-01-27T01:14:47;8.90;80.90
74657;DHT22;63185;45.642;13.764;2024-01-27T01:17:13;8.90;81.00
74657;DHT22;63185;45.642;13.764;2024-01-27T01:19:40;8.90;81.00
74657;DHT22;63185;45.642;13.764;2024-01-27T01:22:07;8.90;81.00
74657;DHT22;63185;45.642;13.764;2024-01-27T01:24:33;8.90;81.00
74657;DHT22;63185;45.642;13.764;2024-01-27T01:26:59;9.00;81.30
74657;DHT22;63185;45.642;13.764;2024-01-27T01:29:25;9.00;81.30
74657;DHT22;63185;45.642;13.764;2024-01-27T01:31:51;9.20;82.00
74657;DHT22;63185;45.642;13.764;2024-01-27T01:34:17;9.30;81.60
74657;DHT22;63185;45.642;13.764;2024-01-27T01:36:43;9.30;81.70
74657;DHT22;63185;45.642;13.764;2024-01-27T01:39:16;9.30;82.00
74657;DHT22;63185;45.642;13.764;2024-01-27T01:44:29;9.20;80.50
74657;DHT22;63185;45.642;13.764;2024-01-27T01:47:18;9.10;80.50
74657;DHT22;63185;45.642;13.764;2024-01-27T01:49:44;9.10;80.50
74657;DHT22;63185;45.642;13.764;2024-01-27T01:52:10;9.00;80.90
74657;DHT22;63185;45.642;13.764;2024-01-27T01:54:37;8.90;81.10
74657;DHT22;63185;45.642;13.764;2024-01-27T01:57:03;8.90;81.40
74657;DHT22;63185;45.642;13.764;2024-01-27T01:59:29;8.90;81.60
74657;DHT22;63185;45.642;13.764;2024-01-27T02:01:55;8.90;81.70
74657;DHT22;63185;45.642;13.764;2024-01-27T02:04:20;9.00;81.80
74657;DHT22;63185;45.642;13.764;2024-01-27T02:06:46;9.00;82.00
74657;DHT22;63185;45.642;13.764;2024-01-27T02:09:12;9.10;82.20
74657;DHT22;63185;45.642;13.764;2024-01-27T02:11:38;9.10;82.40
74657;DHT22;63185;45.642;13.764;2024-01-27T02:14:04;9.10;82.00
74657;DHT22;63185;45.642;13.764;2024-01-27T02:16:29;9.10;81.40
74657;DHT22;63185;45.642;13.764;2024-01-27T02:19:04;9.10;80.60
74657;DHT22;63185;45.642;13.764;2024-01-27T02:21:35;9.10;80.60
74657;DHT22;63185;45.642;13.764;2024-01-27T02:24:08;9.20;80.00
74657;DHT22;63185;45.642;13.764;2024-01-27T02:26:40;9.10;80.10
74657;DHT22;63185;45.642;13.764;2024-01-27T02:29:05;9.00;80.20
74657;DHT22;63185;45.642;13.764;2024-01-27T02:31:31;9.00;80.30
74657;DHT22;63185;45.642;13.764;2024-01-27T02:33:57;8.90;80.40
74657;DHT22;63185;45.642;13.764;2024-01-27T02:36:23;8.90;80.60
74657;DHT22;63185;45.642;13.764;2024-01-27T02:38:48;8.90;80.80
74657;DHT22;63185;45.642;13.764;2024-01-27T02:41:14;8.90;81.00
74657;DHT22;63185;45.642;13.764;2024-01-27T02:43:40;8.90;81.20
74657;DHT22;63185;45.642;13.764;2024-01-27T02:46:11;8.80;81.40
74657;DHT22;63185;45.642;13.764;2024-01-27T02:48:40;8.80;81.40
74657;DHT22;63185;45.642;13.764;2024-01-27T02:51:07;8.80;81.40
74657;DHT22;63185;45.642;13.764;2024-01-27T02:53:33;8.80;81.40
74657;DHT22;63185;45.642;13.764;2024-01-27T02:55:59;8.80;81.50
74657;DHT22;63185;45.642;13.764;2024-01-27T02:58:25;8.80;81.50
74657;DHT22;63185;45.642;13.764;2024-01-27T03:00:50;8.80;81.70
74657;DHT22;63185;45.642;13.764;2024-01-27T03:03:16;8.80;81.80
74657;DHT22;63185;45.642;13.764;2024-01-27T03:05:41;8.80;81.70
74657;DHT22;63185;45.642;13.764;2024-01-27T03:08:07;8.70;81.70
74657;DHT22;63185;45.642;13.764;2024-01-27T03:10:33;8.70;81.60
74657;DHT22;63185;45.642;13.764;2024-01-27T03:12:59;8.70;81.60
74657;DHT22;63185;45.642;13.764;2024-01-27T03:15:24;8.60;81.60
74657;DHT22;63185;45.642;13.764;2024-01-27T03:17:50;8.60;81.60
74657;DHT22;63185;45.642;13.764;2024-01-27T03:20:16;8.60;81.60
74657;DHT22;63185;45.642;13.764;2024-01-27T03:22:41;8.60;81.60
74657;DHT22;63185;45.642;13.764;2024-01-27T03:25:09;8.60;81.90
74657;DHT22;63185;45.642;13.764;2024-01-27T03:27:35;8.60;82.70
74657;DHT22;63185;45.642;13.764;2024-01-27T03:30:01;8.70;82.80
74657;DHT22;63185;45.642;13.764;2024-01-27T03:32:27;8.80;82.80
74657;DHT22;63185;45.642;13.764;2024-01-27T03:34:53;8.90;82.50
74657;DHT22;63185;45.642;13.764;2024-01-27T03:37:21;8.90;82.60
74657;DHT22;63185;45.642;13.764;2024-01-27T03:39:47;8.90;82.50
74657;DHT22;63185;45.642;13.764;2024-01-27T03:42:13;8.90;82.30
74657;DHT22;63185;45.642;13.764;2024-01-27T03:44:39;8.80;82.40
74657;DHT22;63185;45.642;13.764;2024-01-27T03:47:05;8.70;82.10
74657;DHT22;63185;45.642;13.764;2024-01-27T03:49:30;8.60;82.00
74657;DHT22;63185;45.642;13.764;2024-01-27T03:51:56;8.60;81.80
74657;DHT22;63185;45.642;13.764;2024-01-27T03:54:22;8.50;81.50
74657;DHT22;63185;45.642;13.764;2024-01-27T03:56:47;8.50;81.70
74657;DHT22;63185;45.642;13.764;2024-01-27T03:59:13;8.40;81.70
74657;DHT22;63185;45.642;13.764;2024-01-27T04:01:39;8.30;81.70
74657;DHT22;63185;45.642;13.764;2024-01-27T04:04:04;8.30;81.60
74657;DHT22;63185;45.642;13.764;2024-01-27T04:06:39;8.20;81.40
74657;DHT22;63185;45.642;13.764;2024-01-27T04:09:05;8.30;82.20
74657;DHT22;63185;45.642;13.764;2024-01-27T04:11:34;8.40;82.50
74657;DHT22;63185;45.642;13.764;2024-01-27T04:14:01;8.50;82.60
74657;DHT22;63185;45.642;13.764;2024-01-27T04:16:27;8.50;82.50
74657;DHT22;63185;45.642;13.764;2024-01-27T04:18:53;8.50;82.10
74657;DHT22;63185;45.642;13.764;2024-01-27T04:21:19;8.50;82.30
74657;DHT22;63185;45.642;13.764;2024-01-27T04:23:44;8.50;82.30
74657;DHT22;63185;45.642;13.764;2024-01-27T04:26:10;8.50;82.40
74657;DHT22;63185;45.642;13.764;2024-01-27T04:28:36;8.60;82.30
74657;DHT22;63185;45.642;13.764;2024-01-27T04:31:02;8.50;82.30
74657;DHT22;63185;45.642;13.764;2024-01-27T04:33:28;8.50;82.20
74657;DHT22;63185;45.642;13.764;2024-01-27T04:35:53;8.50;82.00
74657;DHT22;63185;45.642;13.764;2024-01-27T04:38:19;8.50;81.90
74657;DHT22;63185;45.642;13.764;2024-01-27T04:40:45;8.40;82.00
74657;DHT22;63185;45.642;13.764;2024-01-27T04:43:15;8.30;82.00
74657;DHT22;63185;45.642;13.764;2024-01-27T04:45:41;8.40;82.10
74657;DHT22;63185;45.642;13.764;2024-01-27T04:48:07;8.40;82.20
74657;DHT22;63185;45.642;13.764;2024-01-27T04:50:33;8.40;82.20
74657;DHT22;63185;45.642;13.764;2024-01-27T04:52:59;8.40;82.10
74657;DHT22;63185;45.642;13.764;2024-01-27T04:55:25;8.40;82.10
74657;DHT22;63185;45.642;13.764;2024-01-27T04:57:51;8.40;82.10
74657;DHT22;63185;45.642;13.764;2024-01-27T05:00:17;8.30;82.10
74657;DHT22;63185;45.642;13.764;2024-01-27T05:02:42;8.30;82.10
74657;DHT22;63185;45.642;13.764;2024-01-27T05:05:08;8.20;82.10
74657;DHT22;63185;45.642;13.764;2024-01-27T05:07:34;8.20;82.30
74657;DHT22;63185;45.642;13.764;2024-01-27T05:10:00;8.20;82.20
74657;DHT22;63185;45.642;13.764;2024-01-27T05:12:26;8.30;82.30
74657;DHT22;63185;45.642;13.764;2024-01-27T05:14:52;8.20;82.30
74657;DHT22;63185;45.642;13.764;2024-01-27T05:17:17;8.20;82.40
74657;DHT22;63185;45.642;13.764;2024-01-27T05:19:43;8.20;82.80
74657;DHT22;63185;45.642;13.764;2024-01-27T05:22:09;8.20;82.80
74657;DHT22;63185;45.642;13.764;2024-01-27T05:24:35;8.20;82.90
74657;DHT22;63185;45.642;13.764;2024-01-27T05:27:00;8.10;83.20
74657;DHT22;63185;45.642;13.764;2024-01-27T05:29:27;8.10;83.20
74657;DHT22;63185;45.642;13.764;2024-01-27T05:31:53;8.20;83.10
74657;DHT22;63185;45.642;13.764;2024-01-27T05:34:19;8.20;82.90
74657;DHT22;63185;45.642;13.764;2024-01-27T05:36:47;8.20;82.80
74657;DHT22;63185;45.642;13.764;2024-01-27T05:39:13;8.20;82.50
74657;DHT22;63185;45.642;13.764;2024-01-27T05:41:39;8.10;82.60
74657;DHT22;63185;45.642;13.764;2024-01-27T05:44:05;8.10;82.50
74657;DHT22;63185;45.642;13.764;2024-01-27T05:46:30;8.10;82.10
74657;DHT22;63185;45.642;13.764;2024-01-27T05:48:56;8.00;81.70
74657;DHT22;63185;45.642;13.764;2024-01-27T05:51:27;8.00;81.70
74657;DHT22;63185;45.642;13.764;2024-01-27T05:53:53;8.00;81.90
74657;DHT22;63185;45.642;13.764;2024-01-27T05:56:18;8.00;81.90
74657;DHT22;63185;45.642;13.764;2024-01-27T05:58:46;7.90;82.40
74657;DHT22;63185;45.642;13.764;2024-01-27T06:01:12;8.00;82.60
74657;DHT22;63185;45.642;13.764;2024-01-27T06:03:38;8.00;82.30
74657;DHT22;63185;45.642;13.764;2024-01-27T06:06:06;8.00;82.00
74657;DHT22;63185;45.642;13.764;2024-01-27T06:08:32;8.00;82.10
74657;DHT22;63185;45.642;13.764;2024-01-27T06:10:57;7.90;81.90
74657;DHT22;63185;45.642;13.764;2024-01-27T06:13:23;7.90;81.70
74657;DHT22;63185;45.642;13.764;2024-01-27T06:15:49;7.90;81.60
74657;DHT22;63185;45.642;13.764;2024-01-27T06:18:14;7.80;81.60
74657;DHT22;63185;45.642;13.764;2024-01-27T06:20:40;7.80;81.60
74657;DHT22;63185;45.642;13.764;2024-01-27T06:23:06;7.70;81.50
74657;DHT22;63185;45.642;13.764;2024-01-27T06:25:32;7.70;81.30
74657;DHT22;63185;45.642;13.764;2024-01-27T06:27:57;7.70;81.40
74657;DHT22;63185;45.642;13.764;2024-01-27T06:30:23;7.70;81.20
74657;DHT22;63185;45.642;13.764;2024-01-27T06:32:50;7.70;81.10
74657;DHT22;63185;45.642;13.764;2024-01-27T06:35:15;7.70;81.20
74657;DHT22;63185;45.642;13.764;2024-01-27T06:37:41;7.80;81.20
74657;DHT22;63185;45.642;13.764;2024-01-27T06:40:07;7.70;81.30
74657;DHT22;63185;45.642;13.764;2024-01-27T06:42:34;7.70;81.30
74657;DHT22;63185;45.642;13.764;2024-01-27T06:45:00;7.80;81.30
74657;DHT22;63185;45.642;13.764;2024-01-27T06:47:26;7.80;81.10
74657;DHT22;63185;45.642;13.764;2024-01-27T06:49:55;7.80;81.10
74657;DHT22;63185;45.642;13.764;2024-01-27T06:52:22;7.90;80.90
74657;DHT22;63185;45.642;13.764;2024-01-27T06:54:58;7.90;80.90
74657;DHT22;63185;45.642;13.764;2024-01-27T06:57:24;7.90;80.80
74657;DHT22;63185;45.642;13.764;2024-01-27T06:59:51;8.00;80.90
74657;DHT22;63185;45.642;13.764;2024-01-27T07:02:28;8.10;81.00
74657;DHT22;63185;45.642;13.764;2024-01-27T07:05:05;8.10;80.90
74657;DHT22;63185;45.642;13.764;2024-01-27T07:07:49;8.10;81.10
74657;DHT22;63185;45.642;13.764;2024-01-27T07:10:15;8.10;81.00
74657;DHT22;63185;45.642;13.764;2024-01-27T07:12:41;8.20;81.10
74657;DHT22;63185;45.642;13.764;2024-01-27T07:15:07;8.30;81.00
74657;DHT22;63185;45.642;13.764;2024-01-27T07:17:32;8.30;81.00
74657;DHT22;63185;45.642;13.764;2024-01-27T07:19:58;8.30;81.20
74657;DHT22;63185;45.642;13.764;2024-01-27T07:22:24;8.40;81.00
74657;DHT22;63185;45.642;13.764;2024-01-27T07:24:50;8.40;80.90
74657;DHT22;63185;45.642;13.764;2024-01-27T07:27:16;8.50;80.70
74657;DHT22;63185;45.642;13.764;2024-01-27T07:29:43;8.50;80.70
74657;DHT22;63185;45.642;13.764;2024-01-27T07:32:08;8.50;80.70
74657;DHT22;63185;45.642;13.764;2024-01-27T07:34:43;8.60;80.80
74657;DHT22;63185;45.642;13.764;2024-01-27T07:37:09;8.60;80.70
74657;DHT22;63185;45.642;13.764;2024-01-27T07:39:35;8.70;80.70
74657;DHT22;63185;45.642;13.764;2024-01-27T07:42:00;8.70;80.60
74657;DHT22;63185;45.642;13.764;2024-01-27T07:44:27;8.80;80.40
74657;DHT22;63185;45.642;13.764;2024-01-27T07:46:52;8.80;80.20
74657;DHT22;63185;45.642;13.764;2024-01-27T07:49:18;8.90;80.20
74657;DHT22;63185;45.642;13.764;2024-01-27T07:51:44;9.00;80.50
74657;DHT22;63185;45.642;13.764;2024-01-27T07:54:09;9.10;80.30
74657;DHT22;63185;45.642;13.764;2024-01-27T07:56:35;9.10;80.10
74657;DHT22;63185;45.642;13.764;2024-01-27T07:59:01;9.20;79.70
74657;DHT22;63185;45.642;13.764;2024-01-27T08:01:27;9.10;79.40
74657;DHT22;63185;45.642;13.764;2024-01-27T08:03:52;9.10;79.10
74657;DHT22;63185;45.642;13.764;2024-01-27T08:06:21;9.20;78.90
74657;DHT22;63185;45.642;13.764;2024-01-27T08:08:48;9.20;78.80
74657;DHT22;63185;45.642;13.764;2024-01-27T08:11:14;9.20;79.20
74657;DHT22;63185;45.642;13.764;2024-01-27T08:13:41;9.30;78.90
74657;DHT22;63185;45.642;13.764;2024-01-27T08:16:07;9.30;78.40
74657;DHT22;63185;45.642;13.764;2024-01-27T08:18:35;9.30;78.30
74657;DHT22;63185;45.642;13.764;2024-01-27T08:21:03;9.20;78.30
74657;DHT22;63185;45.642;13.764;2024-01-27T08:23:29;9.30;78.30
74657;DHT22;63185;45.642;13.764;2024-01-27T08:25:55;9.30;78.10
74657;DHT22;63185;45.642;13.764;2024-01-27T08:28:21;9.40;78.00
74657;DHT22;63185;45.642;13.764;2024-01-27T08:30:47;9.50;77.90
74657;DHT22;63185;45.642;13.764;2024-01-27T08:33:12;9.40;78.00
74657;DHT22;63185;45.642;13.764;2024-01-27T08:35:38;9.50;78.20
74657;DHT22;63185;45.642;13.764;2024-01-27T08:38:04;9.60;78.40
74657;DHT22;63185;45.642;13.764;2024-01-27T08:40:32;9.70;78.30
74657;DHT22;63185;45.642;13.764;2024-01-27T08:43:01;9.70;78.30
74657;DHT22;63185;45.642;13.764;2024-01-27T08:45:27;9.80;78.50
74657;DHT22;63185;45.642;13.764;2024-01-27T08:47:53;9.90;78.40
74657;DHT22;63185;45.642;13.764;2024-01-27T08:50:21;10.00;78.60
74657;DHT22;63185;45.642;13.764;2024-01-27T08:53:11;10.10;78.60
74657;DHT22;63185;45.642;13.764;2024-01-27T08:55:37;10.20;78.20
74657;DHT22;63185;45.642;13.764;2024-01-27T08:58:03;10.30;77.90
74657;DHT22;63185;45.642;13.764;2024-01-27T09:00:35;10.40;77.50
74657;DHT22;63185;45.642;13.764;2024-01-27T09:03:10;10.40;77.50
74657;DHT22;63185;45.642;13.764;2024-01-27T09:05:58;10.40;77.40
74657;DHT22;63185;45.642;13.764;2024-01-27T09:08:24;10.60;77.20
74657;DHT22;63185;45.642;13.764;2024-01-27T09:11:04;10.70;76.80
74657;DHT22;63185;45.642;13.764;2024-01-27T09:13:50;10.70;76.70
74657;DHT22;63185;45.642;13.764;2024-01-27T09:16:17;10.80;76.20
74657;DHT22;63185;45.642;13.764;2024-01-27T09:18:46;10.80;76.10
74657;DHT22;63185;45.642;13.764;2024-01-27T09:21:12;11.00;75.70
74657;DHT22;63185;45.642;13.764;2024-01-27T09:23:40;11.10;75.40
74657;DHT22;63185;45.642;13.764;2024-01-27T09:26:05;11.30;75.20
74657;DHT22;63185;45.642;13.764;2024-01-27T09:28:31;11.30;74.50
74657;DHT22;63185;45.642;13.764;2024-01-27T09:30:57;11.50;74.10
74657;DHT22;63185;45.642;13.764;2024-01-27T09:33:22;11.60;73.60
74657;DHT22;63185;45.642;13.764;2024-01-27T09:35:49;11.70;73.10
74657;DHT22;63185;45.642;13.764;2024-01-27T09:38:15;11.80;73.20
74657;DHT22;63185;45.642;13.764;2024-01-27T09:40:41;11.80;73.20
74657;DHT22;63185;45.642;13.764;2024-01-27T09:43:09;11.80;73.30
74657;DHT22;63185;45.642;13.764;2024-01-27T09:45:38;11.60;74.20
74657;DHT22;63185;45.642;13.764;2024-01-27T09:48:05;11.60;74.50
74657;DHT22;63185;45.642;13.764;2024-01-27T09:50:34;11.60;74.50
74657;DHT22;63185;45.642;13.764;2024-01-27T09:52:59;11.60;74.70
74657;DHT22;63185;45.642;13.764;2024-01-27T09:55:26;11.60;74.80
74657;DHT22;63185;45.642;13.764;2024-01-27T09:57:52;11.60;74.90
74657;DHT22;63185;45.642;13.764;2024-01-27T10:00:19;11.60;75.20
74657;DHT22;63185;45.642;13.764;2024-01-27T10:02:46;11.60;75.00
74657;DHT22;63185;45.642;13.764;2024-01-27T10:05:14;11.60;75.00
74657;DHT22;63185;45.642;13.764;2024-01-27T10:07:41;11.60;75.20
74657;DHT22;63185;45.642;13.764;2024-01-27T10:10:07;11.60;75.10
74657;DHT22;63185;45.642;13.764;2024-01-27T10:12:35;11.60;75.20
74657;DHT22;63185;45.642;13.764;2024-01-27T10:15:04;11.60;75.20
74657;DHT22;63185;45.642;13.764;2024-01-27T10:17:30;11.60;75.10
74657;DHT22;63185;45.642;13.764;2024-01-27T10:20:02;11.60;75.10
74657;DHT22;63185;45.642;13.764;2024-01-27T10:22:37;11.60;75.20
74657;DHT22;63185;45.642;13.764;2024-01-27T10:25:02;11.60;75.20
74657;DHT22;63185;45.642;13.764;2024-01-27T10:27:28;11.60;75.30
74657;DHT22;63185;45.642;13.764;2024-01-27T10:29:54;11.50;75.80
74657;DHT22;63185;45.642;13.764;2024-01-27T10:32:21;11.60;75.80
74657;DHT22;63185;45.642;13.764;2024-01-27T10:34:50;11.70;76.10
74657;DHT22;63185;45.642;13.764;2024-01-27T10:37:23;11.70;76.00
74657;DHT22;63185;45.642;13.764;2024-01-27T10:39:49;11.70;76.00
74657;DHT22;63185;45.642;13.764;2024-01-27T10:42:15;11.80;75.80
74657;DHT22;63185;45.642;13.764;2024-01-27T10:44:42;12.00;75.30
74657;DHT22;63185;45.642;13.764;2024-01-27T10:47:12;12.10;74.90
74657;DHT22;63185;45.642;13.764;2024-01-27T10:49:44;12.10;75.00
74657;DHT22;63185;45.642;13.764;2024-01-27T10:52:11;12.20;74.50
74657;DHT22;63185;45.642;13.764;2024-01-27T10:54:40;12.30;74.10
74657;DHT22;63185;45.642;13.764;2024-01-27T10:57:08;12.40;73.50
74657;DHT22;63185;45.642;13.764;2024-01-27T10:59:35;12.40;73.50
74657;DHT22;63185;45.642;13.764;2024-01-27T11:02:02;12.50;72.70
74657;DHT22;63185;45.642;13.764;2024-01-27T11:04:30;12.60;73.10
74657;DHT22;63185;45.642;13.764;2024-01-27T11:06:58;12.60;72.40
74657;DHT22;63185;45.642;13.764;2024-01-27T11:09:25;12.60;71.80
74657;DHT22;63185;45.642;13.764;2024-01-27T11:11:51;12.80;71.70
74657;DHT22;63185;45.642;13.764;2024-01-27T11:14:17;12.80;71.20
74657;DHT22;63185;45.642;13.764;2024-01-27T11:16:43;12.90;71.50
74657;DHT22;63185;45.642;13.764;2024-01-27T11:19:12;13.00;71.20
74657;DHT22;63185;45.642;13.764;2024-01-27T11:21:37;13.10;71.00
74657;DHT22;63185;45.642;13.764;2024-01-27T11:26:39;13.20;71.20
74657;DHT22;63185;45.642;13.764;2024-01-27T11:29:07;13.10;71.00
74657;DHT22;63185;45.642;13.764;2024-01-27T11:31:35;13.20;71.00
74657;DHT22;63185;45.642;13.764;2024-01-27T11:34:01;12.90;71.70
74657;DHT22;63185;45.642;13.764;2024-01-27T11:36:27;12.90;72.30
74657;DHT22;63185;45.642;13.764;2024-01-27T11:38:53;12.80;72.70
74657;DHT22;63185;45.642;13.764;2024-01-27T11:41:29;12.50;73.90
74657;DHT22;63185;45.642;13.764;2024-01-27T11:43:59;12.10;74.40
74657;DHT22;63185;45.642;13.764;2024-01-27T11:46:27;12.20;73.70
74657;DHT22;63185;45.642;13.764;2024-01-27T11:48:53;12.20;73.90
74657;DHT22;63185;45.642;13.764;2024-01-27T11:51:19;12.20;72.80
74657;DHT22;63185;45.642;13.764;2024-01-27T11:53:45;12.20;73.50
74657;DHT22;63185;45.642;13.764;2024-01-27T11:56:12;12.20;73.90
74657;DHT22;63185;45.642;13.764;2024-01-27T11:58:37;12.20;73.50
74657;DHT22;63185;45.642;13.764;2024-01-27T12:01:03;12.30;73.90
74657;DHT22;63185;45.642;13.764;2024-01-27T12:03:29;12.10;74.70
74657;DHT22;63185;45.642;13.764;2024-01-27T12:05:56;12.00;75.30
74657;DHT22;63185;45.642;13.764;2024-01-27T12:08:21;12.00;76.40
74657;DHT22;63185;45.642;13.764;2024-01-27T12:10:47;11.90;77.00
74657;DHT22;63185;45.642;13.764;2024-01-27T12:13:13;11.70;77.20
74657;DHT22;63185;45.642;13.764;2024-01-27T12:15:39;11.60;77.70
74657;DHT22;63185;45.642;13.764;2024-01-27T12:18:05;11.60;78.50
74657;DHT22;63185;45.642;13.764;2024-01-27T12:20:31;11.40;78.10
74657;DHT22;63185;45.642;13.764;2024-01-27T12:23:06;11.30;77.70
74657;DHT22;63185;45.642;13.764;2024-01-27T12:25:32;11.50;77.40
74657;DHT22;63185;45.642;13.764;2024-01-27T12:28:03;11.50;77.30
74657;DHT22;63185;45.642;13.764;2024-01-27T12:30:29;11.50;76.60
74657;DHT22;63185;45.642;13.764;2024-01-27T12:32:56;11.60;75.90
74657;DHT22;63185;45.642;13.764;2024-01-27T12:35:23;11.70;76.00
74657;DHT22;63185;45.642;13.764;2024-01-27T12:37:49;11.80;75.80
74657;DHT22;63185;45.642;13.764;2024-01-27T12:40:22;11.80;76.10
74657;DHT22;63185;45.642;13.764;2024-01-27T12:42:48;11.60;77.40
74657;DHT22;63185;45.642;13.764;2024-01-27T12:45:14;11.50;78.40
74657;DHT22;63185;45.642;13.764;2024-01-27T12:47:40;11.50;79.00
74657;DHT22;63185;45.642;13.764;2024-01-27T12:50:06;11.50;79.10
74657;DHT22;63185;45.642;13.764;2024-01-27T12:52:32;11.50;79.00
74657;DHT22;63185;45.642;13.764;2024-01-27T12:54:58;11.60;78.60
74657;DHT22;63185;45.642;13.764;2024-01-27T12:57:24;11.50;77.40
74657;DHT22;63185;45.642;13.764;2024-01-27T12:59:50;11.50;78.00
74657;DHT22;63185;45.642;13.764;2024-01-27T13:02:16;11.60;77.90
74657;DHT22;63185;45.642;13.764;2024-01-27T13:04:42;11.50;78.40
74657;DHT22;63185;45.642;13.764;2024-01-27T13:07:07;11.60;78.30
74657;DHT22;63185;45.642;13.764;2024-01-27T13:09:34;11.60;78.30
74657;DHT22;63185;45.642;13.764;2024-01-27T13:12:00;11.60;77.10
74657;DHT22;63185;45.642;13.764;2024-01-27T13:14:25;11.60;76.70
74657;DHT22;63185;45.642;13.764;2024-01-27T13:16:51;11.30;77.90
74657;DHT22;63185;45.642;13.764;2024-01-27T13:19:19;11.30;77.70
74657;DHT22;63185;45.642;13.764;2024-01-27T13:21:45;11.50;76.30
74657;DHT22;63185;45.642;13.764;2024-01-27T13:24:11;11.60;76.10
74657;DHT22;63185;45.642;13.764;2024-01-27T13:26:37;11.70;75.90
74657;DHT22;63185;45.642;13.764;2024-01-27T13:29:07;11.70;76.40
74657;DHT22;63185;45.642;13.764;2024-01-27T13:31:34;11.60;77.30
74657;DHT22;63185;45.642;13.764;2024-01-27T13:34:00;11.60;76.70
74657;DHT22;63185;45.642;13.764;2024-01-27T13:36:26;11.70;75.80
74657;DHT22;63185;45.642;13.764;2024-01-27T13:38:52;11.70;76.50
74657;DHT22;63185;45.642;13.764;2024-01-27T13:41:18;11.60;77.10
74657;DHT22;63185;45.642;13.764;2024-01-27T13:43:44;11.60;77.50
74657;DHT22;63185;45.642;13.764;2024-01-27T13:46:10;11.50;78.30
74657;DHT22;63185;45.642;13.764;2024-01-27T13:48:36;11.50;78.40
74657;DHT22;63185;45.642;13.764;2024-01-27T13:51:02;11.50;78.60
74657;DHT22;63185;45.642;13.764;2024-01-27T13:53:28;11.50;78.70
74657;DHT22;63185;45.642;13.764;2024-01-27T13:55:54;11.70;78.70
74657;DHT22;63185;45.642;13.764;2024-01-27T13:58:20;11.60;78.80
74657;DHT22;63185;45.642;13.764;2024-01-27T14:00:46;11.70;78.90
74657;DHT22;63185;45.642;13.764;2024-01-27T14:03:11;11.70;79.20
74657;DHT22;63185;45.642;13.764;2024-01-27T14:05:38;11.70;78.40
74657;DHT22;63185;45.642;13.764;2024-01-27T14:08:05;11.70;78.20
74657;DHT22;63185;45.642;13.764;2024-01-27T14:10:32;11.70;77.90
74657;DHT22;63185;45.642;13.764;2024-01-27T14:12:58;11.60;78.10
74657;DHT22;63185;45.642;13.764;2024-01-27T14:15:23;11.50;78.60
74657;DHT22;63185;45.642;13.764;2024-01-27T14:17:49;11.40;79.60
74657;DHT22;63185;45.642;13.764;2024-01-27T14:20:15;11.40;79.50
74657;DHT22;63185;45.642;13.764;2024-01-27T14:22:41;11.40;79.50
74657;DHT22;63185;45.642;13.764;2024-01-27T14:25:07;11.30;79.80
74657;DHT22;63185;45.642;13.764;2024-01-27T14:27:33;11.40;79.50
74657;DHT22;63185;45.642;13.764;2024-01-27T14:30:00;11.50;78.90
74657;DHT22;63185;45.642;13.764;2024-01-27T14:32:26;11.60;79.20
74657;DHT22;63185;45.642;13.764;2024-01-27T14:34:52;11.50;80.00
74657;DHT22;63185;45.642;13.764;2024-01-27T14:37:19;11.60;79.50
74657;DHT22;63185;45.642;13.764;2024-01-27T14:39:45;11.60;79.60
74657;DHT22;63185;45.642;13.764;2024-01-27T14:42:16;11.50;79.50
74657;DHT22;63185;45.642;13.764;2024-01-27T14:44:44;11.60;77.50
74657;DHT22;63185;45.642;13.764;2024-01-27T14:47:15;11.90;77.50
74657;DHT22;63185;45.642;13.764;2024-01-27T14:49:40;12.00;76.30
74657;DHT22;63185;45.642;13.764;2024-01-27T14:52:09;12.40;75.40
74657;DHT22;63185;45.642;13.764;2024-01-27T14:54:36;12.70;74.10
74657;DHT22;63185;45.642;13.764;2024-01-27T14:57:02;12.60;73.40
74657;DHT22;63185;45.642;13.764;2024-01-27T14:59:29;12.70;73.30
74657;DHT22;63185;45.642;13.764;2024-01-27T15:01:55;13.10;71.80
74657;DHT22;63185;45.642;13.764;2024-01-27T15:04:23;13.20;71.70
74657;DHT22;63185;45.642;13.764;2024-01-27T15:06:55;13.60;70.50
74657;DHT22;63185;45.642;13.764;2024-01-27T15:09:22;13.70;70.10
74657;DHT22;63185;45.642;13.764;2024-01-27T15:11:49;14.10;68.80
74657;DHT22;63185;45.642;13.764;2024-01-27T15:14:15;14.30;67.90
74657;DHT22;63185;45.642;13.764;2024-01-27T15:16:41;14.60;67.50
74657;DHT22;63185;45.642;13.764;2024-01-27T15:19:07;14.40;67.80
74657;DHT22;63185;45.642;13.764;2024-01-27T15:21:33;14.60;67.10
74657;DHT22;63185;45.642;13.764;2024-01-27T15:23:58;14.90;66.40
74657;DHT22;63185;45.642;13.764;2024-01-27T15:26:24;14.80;66.20
74657;DHT22;63185;45.642;13.764;2024-01-27T15:28:50;14.60;67.30